KLM27J EHAM-EGBB
Flight info
| Callsign | KLM27J |
|---|---|
| Flight time | 0h 50m |
| Altitude | 34000 |
| Route | IDRID L980 LAM L610 HEMEL |
| Aircraft | B738/M-SDE2E3FGHIRWXY/LB1 |
Departure
| Time | 2026-04-29 13:21 |
|---|---|
| Airport | Amsterdam Airport Schiphol (EHAM) |
Arrival
| Time | 2026-04-29 14:11 |
|---|---|
| Airport | Birmingham Airport (EGBB) |
| Time | Latitude | Longitude | Altitude | Speed | Heading |
|---|---|---|---|---|---|
| 2026-04-29 12:40 | 52.30897 | 4.77303 | -2 ft | 0 kts | 3° |
| 2026-04-29 13:03 | 52.30896 | 4.77302 | -2 ft | 2 kts | 3° |
| 2026-04-29 13:03 | 52.30872 | 4.77303 | -2 ft | 4 kts | 355° |
| 2026-04-29 13:03 | 52.30852 | 4.77302 | -2 ft | 3 kts | 58° |
| 2026-04-29 13:04 | 52.30844 | 4.77271 | -2 ft | 2 kts | 79° |
| 2026-04-29 13:04 | 52.30844 | 4.77268 | -2 ft | 0 kts | 78° |
| 2026-04-29 13:07 | 52.30844 | 4.77270 | -2 ft | 1 kts | 80° |
| 2026-04-29 13:07 | 52.30842 | 4.77303 | -2 ft | 5 kts | 94° |
| 2026-04-29 13:07 | 52.30839 | 4.77392 | -2 ft | 10 kts | 94° |
| 2026-04-29 13:07 | 52.30834 | 4.77500 | -2 ft | 9 kts | 90° |
| 2026-04-29 13:08 | 52.30852 | 4.77594 | -2 ft | 9 kts | 34° |
| 2026-04-29 13:08 | 52.30928 | 4.77613 | -2 ft | 13 kts | 2° |
| 2026-04-29 13:08 | 52.31020 | 4.77621 | -2 ft | 14 kts | 4° |
| 2026-04-29 13:08 | 52.31124 | 4.77629 | -2 ft | 15 kts | 4° |
| 2026-04-29 13:09 | 52.31230 | 4.77639 | -2 ft | 16 kts | 360° |
| 2026-04-29 13:09 | 52.31340 | 4.77650 | -2 ft | 16 kts | 4° |
| 2026-04-29 13:09 | 52.31456 | 4.77631 | -2 ft | 19 kts | 333° |
| 2026-04-29 13:09 | 52.31555 | 4.77480 | -2 ft | 19 kts | 302° |
| 2026-04-29 13:10 | 52.31574 | 4.77251 | -2 ft | 23 kts | 266° |
| 2026-04-29 13:10 | 52.31565 | 4.76992 | -2 ft | 23 kts | 267° |
| 2026-04-29 13:10 | 52.31559 | 4.76823 | -2 ft | 22 kts | 265° |
| 2026-04-29 13:10 | 52.31550 | 4.76575 | -2 ft | 22 kts | 266° |
| 2026-04-29 13:11 | 52.31542 | 4.76335 | -2 ft | 21 kts | 266° |
| 2026-04-29 13:11 | 52.31533 | 4.76074 | -2 ft | 24 kts | 267° |
| 2026-04-29 13:11 | 52.31522 | 4.75773 | -2 ft | 29 kts | 266° |
| 2026-04-29 13:11 | 52.31512 | 4.75449 | -2 ft | 28 kts | 267° |
| 2026-04-29 13:12 | 52.31501 | 4.75144 | -2 ft | 26 kts | 266° |
| 2026-04-29 13:12 | 52.31491 | 4.74857 | -2 ft | 26 kts | 267° |
| 2026-04-29 13:12 | 52.31482 | 4.74564 | -2 ft | 25 kts | 268° |
| 2026-04-29 13:12 | 52.31478 | 4.74345 | -2 ft | 13 kts | 288° |
| 2026-04-29 13:13 | 52.31565 | 4.74299 | -2 ft | 16 kts | 3° |
| 2026-04-29 13:13 | 52.31698 | 4.74312 | -2 ft | 22 kts | 3° |
| 2026-04-29 13:13 | 52.31869 | 4.74327 | -2 ft | 26 kts | 4° |
| 2026-04-29 13:13 | 52.32010 | 4.74318 | -2 ft | 16 kts | 321° |
| 2026-04-29 13:14 | 52.32034 | 4.74152 | -2 ft | 14 kts | 274° |
| 2026-04-29 13:14 | 52.32038 | 4.73988 | -3 ft | 17 kts | 272° |
| 2026-04-29 13:14 | 52.32046 | 4.73772 | -2 ft | 21 kts | 272° |
| 2026-04-29 13:14 | 52.32055 | 4.73514 | -2 ft | 24 kts | 274° |
| 2026-04-29 13:15 | 52.32141 | 4.73282 | -2 ft | 26 kts | 319° |
| 2026-04-29 13:15 | 52.32280 | 4.73082 | -2 ft | 26 kts | 315° |
| 2026-04-29 13:15 | 52.32414 | 4.72900 | -2 ft | 24 kts | 318° |
| 2026-04-29 13:15 | 52.32537 | 4.72729 | -2 ft | 23 kts | 318° |
| 2026-04-29 13:16 | 52.32654 | 4.72559 | -2 ft | 22 kts | 317° |
| 2026-04-29 13:16 | 52.32756 | 4.72376 | -2 ft | 22 kts | 311° |
| 2026-04-29 13:16 | 52.32853 | 4.72195 | -2 ft | 21 kts | 312° |
| 2026-04-29 13:16 | 52.32955 | 4.72007 | -2 ft | 24 kts | 311° |
| 2026-04-29 13:17 | 52.33067 | 4.71802 | -2 ft | 24 kts | 311° |
| 2026-04-29 13:17 | 52.33149 | 4.71609 | -2 ft | 20 kts | 277° |
| 2026-04-29 13:17 | 52.33082 | 4.71428 | -2 ft | 19 kts | 220° |
| 2026-04-29 13:17 | 52.32986 | 4.71290 | -2 ft | 19 kts | 222° |
| 2026-04-29 13:18 | 52.32887 | 4.71147 | -2 ft | 17 kts | 227° |
| 2026-04-29 13:18 | 52.32862 | 4.71061 | -2 ft | 0 kts | 265° |
| 2026-04-29 13:19 | 52.32862 | 4.71055 | -2 ft | 2 kts | 267° |
| 2026-04-29 13:19 | 52.32863 | 4.70981 | -3 ft | 12 kts | 274° |
| 2026-04-29 13:19 | 52.32918 | 4.70896 | -3 ft | 7 kts | 5° |
| 2026-04-29 13:19 | 52.32923 | 4.70897 | -4 ft | 0 kts | 4° |
| 2026-04-29 13:20 | 52.32925 | 4.70897 | -4 ft | 1 kts | 4° |
| 2026-04-29 13:20 | 52.32979 | 4.70904 | -4 ft | 28 kts | 5° |
| 2026-04-29 13:20 | 52.33449 | 4.70947 | -3 ft | 105 kts | 3° |
| 2026-04-29 13:20 | 52.34397 | 4.71033 | 25 ft | 163 kts | 3° |
| 2026-04-29 13:21 | 52.35505 | 4.71111 | 923 ft | 152 kts | 6° |
| 2026-04-29 13:21 | 52.36587 | 4.71202 | 1718 ft | 156 kts | 7° |
| 2026-04-29 13:21 | 52.37734 | 4.71307 | 2158 ft | 181 kts | 8° |
| 2026-04-29 13:21 | 52.39081 | 4.71417 | 2488 ft | 205 kts | 7° |
| 2026-04-29 13:22 | 52.40594 | 4.71543 | 2662 ft | 230 kts | 8° |
| 2026-04-29 13:22 | 52.42273 | 4.71655 | 3032 ft | 252 kts | 360° |
| 2026-04-29 13:22 | 52.43927 | 4.70567 | 3785 ft | 269 kts | 324° |
| 2026-04-29 13:22 | 52.45286 | 4.68412 | 4615 ft | 274 kts | 318° |
| 2026-04-29 13:23 | 52.46413 | 4.65844 | 5343 ft | 287 kts | 292° |
| 2026-04-29 13:23 | 52.46616 | 4.62579 | 6148 ft | 293 kts | 261° |
| 2026-04-29 13:23 | 52.45989 | 4.59406 | 6978 ft | 295 kts | 243° |
| 2026-04-29 13:23 | 52.45038 | 4.56398 | 7772 ft | 300 kts | 239° |
| 2026-04-29 13:24 | 52.44030 | 4.53431 | 8626 ft | 303 kts | 239° |
| 2026-04-29 13:24 | 52.42979 | 4.50366 | 9458 ft | 307 kts | 239° |
| 2026-04-29 13:24 | 52.41948 | 4.47328 | 10282 ft | 311 kts | 240° |
| 2026-04-29 13:24 | 52.40878 | 4.44139 | 10950 ft | 325 kts | 240° |
| 2026-04-29 13:25 | 52.39766 | 4.40806 | 11160 ft | 350 kts | 240° |
| 2026-04-29 13:25 | 52.37368 | 4.33564 | 12496 ft | 367 kts | 241° |
| 2026-04-29 13:25 | 52.36151 | 4.29888 | 13344 ft | 370 kts | 241° |
| 2026-04-29 13:26 | 52.34914 | 4.26163 | 14131 ft | 374 kts | 241° |
| 2026-04-29 13:26 | 52.33668 | 4.22405 | 14932 ft | 379 kts | 242° |
| 2026-04-29 13:26 | 52.32406 | 4.18604 | 15760 ft | 382 kts | 242° |
| 2026-04-29 13:26 | 52.31088 | 4.14808 | 16562 ft | 387 kts | 237° |
| 2026-04-29 13:27 | 52.29494 | 4.11235 | 17331 ft | 391 kts | 232° |
| 2026-04-29 13:27 | 52.27800 | 4.07739 | 18077 ft | 395 kts | 231° |
| 2026-04-29 13:27 | 52.26069 | 4.04226 | 18803 ft | 399 kts | 231° |
| 2026-04-29 13:27 | 52.24323 | 4.00674 | 19524 ft | 403 kts | 231° |
| 2026-04-29 13:28 | 52.22573 | 3.97082 | 20171 ft | 408 kts | 231° |
| 2026-04-29 13:28 | 52.20805 | 3.93430 | 20788 ft | 413 kts | 232° |
| 2026-04-29 13:28 | 52.19021 | 3.89727 | 21404 ft | 417 kts | 232° |
| 2026-04-29 13:28 | 52.17221 | 3.85986 | 22038 ft | 421 kts | 232° |
| 2026-04-29 13:29 | 52.15409 | 3.82222 | 22623 ft | 425 kts | 232° |
| 2026-04-29 13:29 | 52.13573 | 3.78414 | 23182 ft | 430 kts | 231° |
| 2026-04-29 13:29 | 52.11717 | 3.74567 | 23735 ft | 434 kts | 231° |
| 2026-04-29 13:29 | 52.09846 | 3.70696 | 24261 ft | 437 kts | 231° |
| 2026-04-29 13:30 | 52.07954 | 3.66790 | 24744 ft | 442 kts | 231° |
| 2026-04-29 13:30 | 52.06041 | 3.62841 | 25217 ft | 447 kts | 231° |
| 2026-04-29 13:30 | 52.04111 | 3.58866 | 25687 ft | 451 kts | 231° |
| 2026-04-29 13:30 | 52.02159 | 3.54849 | 26149 ft | 454 kts | 231° |
| 2026-04-29 13:31 | 52.00190 | 3.50809 | 26599 ft | 458 kts | 230° |
| 2026-04-29 13:31 | 51.98232 | 3.46709 | 27044 ft | 461 kts | 232° |
| 2026-04-29 13:31 | 51.96323 | 3.42499 | 27495 ft | 464 kts | 233° |
| 2026-04-29 13:31 | 51.94428 | 3.38236 | 27886 ft | 468 kts | 233° |
| 2026-04-29 13:32 | 51.92519 | 3.33948 | 28285 ft | 471 kts | 233° |
| 2026-04-29 13:32 | 51.90583 | 3.29644 | 28697 ft | 474 kts | 232° |
| 2026-04-29 13:32 | 51.88626 | 3.25332 | 29078 ft | 477 kts | 232° |
| 2026-04-29 13:32 | 51.86790 | 3.20930 | 29420 ft | 481 kts | 240° |
| 2026-04-29 13:33 | 51.85385 | 3.16014 | 29783 ft | 484 kts | 250° |
| 2026-04-29 13:33 | 51.84442 | 3.10791 | 30145 ft | 485 kts | 259° |
| 2026-04-29 13:33 | 51.83988 | 3.05383 | 30480 ft | 486 kts | 265° |
| 2026-04-29 13:33 | 51.83680 | 2.99927 | 30924 ft | 485 kts | 266° |
| 2026-04-29 13:34 | 51.83382 | 2.94516 | 31469 ft | 482 kts | 265° |
| 2026-04-29 13:34 | 51.83067 | 2.89147 | 31977 ft | 479 kts | 265° |
| 2026-04-29 13:34 | 51.82728 | 2.83780 | 32365 ft | 480 kts | 264° |
| 2026-04-29 13:34 | 51.82373 | 2.78410 | 32698 ft | 481 kts | 264° |
| 2026-04-29 13:35 | 51.82012 | 2.73047 | 33132 ft | 479 kts | 264° |
| 2026-04-29 13:35 | 51.81649 | 2.67700 | 33556 ft | 478 kts | 264° |
| 2026-04-29 13:35 | 51.81283 | 2.62366 | 33914 ft | 478 kts | 264° |
| 2026-04-29 13:35 | 51.80911 | 2.57032 | 34256 ft | 478 kts | 264° |
| 2026-04-29 13:36 | 51.80157 | 2.46266 | 34315 ft | 484 kts | 263° |
| 2026-04-29 13:36 | 51.79399 | 2.35522 | 34299 ft | 478 kts | 263° |
| 2026-04-29 13:37 | 51.78637 | 2.24857 | 34312 ft | 479 kts | 263° |
| 2026-04-29 13:37 | 51.77932 | 2.14147 | 34310 ft | 481 kts | 264° |
| 2026-04-29 13:38 | 51.77317 | 2.03380 | 34307 ft | 482 kts | 264° |
| 2026-04-29 13:38 | 51.76689 | 1.92581 | 34304 ft | 484 kts | 264° |
| 2026-04-29 13:39 | 51.76035 | 1.81774 | 34317 ft | 484 kts | 264° |
| 2026-04-29 13:39 | 51.75368 | 1.70973 | 34318 ft | 483 kts | 264° |
| 2026-04-29 13:40 | 51.74693 | 1.60189 | 34317 ft | 482 kts | 264° |
| 2026-04-29 13:40 | 51.74008 | 1.49460 | 34310 ft | 480 kts | 264° |
| 2026-04-29 13:41 | 51.73316 | 1.38780 | 34310 ft | 477 kts | 264° |
| 2026-04-29 13:41 | 51.72617 | 1.28165 | 34312 ft | 475 kts | 263° |
| 2026-04-29 13:42 | 51.71922 | 1.17686 | 34310 ft | 472 kts | 263° |
| 2026-04-29 13:42 | 51.71216 | 1.07181 | 34308 ft | 471 kts | 263° |
| 2026-04-29 13:43 | 51.70498 | 0.96700 | 34312 ft | 469 kts | 263° |
| 2026-04-29 13:43 | 51.69774 | 0.86243 | 34285 ft | 470 kts | 263° |
| 2026-04-29 13:44 | 51.69405 | 0.80967 | 33789 ft | 476 kts | 263° |
| 2026-04-29 13:44 | 51.69033 | 0.75676 | 33227 ft | 475 kts | 263° |
| 2026-04-29 13:44 | 51.68660 | 0.70404 | 32737 ft | 470 kts | 263° |
| 2026-04-29 13:44 | 51.68289 | 0.65208 | 32288 ft | 464 kts | 262° |
| 2026-04-29 13:45 | 51.67919 | 0.60066 | 31835 ft | 459 kts | 262° |
| 2026-04-29 13:45 | 51.67553 | 0.54980 | 31403 ft | 454 kts | 262° |
| 2026-04-29 13:45 | 51.67187 | 0.49954 | 30973 ft | 449 kts | 262° |
| 2026-04-29 13:45 | 51.66825 | 0.44998 | 30648 ft | 442 kts | 262° |
| 2026-04-29 13:46 | 51.66466 | 0.40109 | 30257 ft | 437 kts | 261° |
| 2026-04-29 13:46 | 51.66107 | 0.35281 | 29838 ft | 432 kts | 261° |
| 2026-04-29 13:46 | 51.65752 | 0.30496 | 29411 ft | 428 kts | 261° |
| 2026-04-29 13:46 | 51.65398 | 0.25764 | 28982 ft | 425 kts | 261° |
| 2026-04-29 13:47 | 51.65058 | 0.21057 | 28537 ft | 421 kts | 264° |
| 2026-04-29 13:47 | 51.65099 | 0.16350 | 28097 ft | 421 kts | 276° |
| 2026-04-29 13:47 | 51.65649 | 0.11753 | 27681 ft | 417 kts | 285° |
| 2026-04-29 13:47 | 51.66664 | 0.07388 | 27269 ft | 417 kts | 294° |
| 2026-04-29 13:48 | 51.67887 | 0.03086 | 26867 ft | 428 kts | 295° |
| 2026-04-29 13:48 | 51.69156 | -0.01282 | 26397 ft | 431 kts | 295° |
| 2026-04-29 13:48 | 51.70419 | -0.05647 | 25941 ft | 427 kts | 294° |
| 2026-04-29 13:48 | 51.71637 | -0.09914 | 25496 ft | 423 kts | 293° |
| 2026-04-29 13:49 | 51.72847 | -0.14207 | 25058 ft | 419 kts | 293° |
| 2026-04-29 13:49 | 51.74041 | -0.18471 | 24622 ft | 415 kts | 293° |
| 2026-04-29 13:49 | 51.75221 | -0.22704 | 24194 ft | 411 kts | 293° |
| 2026-04-29 13:49 | 51.76386 | -0.26890 | 23771 ft | 407 kts | 293° |
| 2026-04-29 13:50 | 51.77540 | -0.31046 | 23355 ft | 404 kts | 293° |
| 2026-04-29 13:50 | 51.78682 | -0.35168 | 22936 ft | 400 kts | 293° |
| 2026-04-29 13:50 | 51.79958 | -0.39133 | 22504 ft | 398 kts | 304° |
| 2026-04-29 13:50 | 51.81716 | -0.42545 | 22119 ft | 393 kts | 317° |
| 2026-04-29 13:51 | 51.83824 | -0.45292 | 21783 ft | 389 kts | 330° |
| 2026-04-29 13:51 | 51.86167 | -0.47552 | 21468 ft | 396 kts | 333° |
| 2026-04-29 13:51 | 51.88567 | -0.49789 | 21110 ft | 400 kts | 333° |
| 2026-04-29 13:51 | 51.90975 | -0.52073 | 20747 ft | 400 kts | 332° |
| 2026-04-29 13:52 | 51.93350 | -0.54370 | 20381 ft | 396 kts | 332° |
| 2026-04-29 13:52 | 51.95705 | -0.56670 | 20032 ft | 393 kts | 332° |
| 2026-04-29 13:52 | 51.98038 | -0.58956 | 19685 ft | 391 kts | 332° |
| 2026-04-29 13:52 | 52.00358 | -0.61231 | 19337 ft | 388 kts | 332° |
| 2026-04-29 13:53 | 52.02663 | -0.63493 | 18996 ft | 386 kts | 333° |
| 2026-04-29 13:53 | 52.04958 | -0.65744 | 18659 ft | 384 kts | 333° |
| 2026-04-29 13:53 | 52.07241 | -0.67986 | 18318 ft | 382 kts | 333° |
| 2026-04-29 13:53 | 52.09509 | -0.70215 | 17976 ft | 381 kts | 333° |
| 2026-04-29 13:54 | 52.11768 | -0.72437 | 17636 ft | 379 kts | 333° |
| 2026-04-29 13:54 | 52.14020 | -0.74654 | 17309 ft | 377 kts | 333° |
| 2026-04-29 13:54 | 52.16264 | -0.76865 | 16957 ft | 376 kts | 333° |
| 2026-04-29 13:54 | 52.18499 | -0.79071 | 16638 ft | 375 kts | 333° |
| 2026-04-29 13:55 | 52.20717 | -0.81265 | 16309 ft | 373 kts | 333° |
| 2026-04-29 13:55 | 52.22894 | -0.83559 | 15971 ft | 374 kts | 324° |
| 2026-04-29 13:55 | 52.24617 | -0.86759 | 15640 ft | 378 kts | 302° |
| 2026-04-29 13:55 | 52.25606 | -0.90720 | 15319 ft | 378 kts | 283° |
| 2026-04-29 13:56 | 52.26173 | -0.94888 | 14999 ft | 376 kts | 281° |
| 2026-04-29 13:56 | 52.26704 | -0.99059 | 14659 ft | 374 kts | 281° |
| 2026-04-29 13:56 | 52.27233 | -1.03196 | 14326 ft | 372 kts | 281° |
| 2026-04-29 13:56 | 52.27775 | -1.07328 | 14005 ft | 370 kts | 282° |
| 2026-04-29 13:57 | 52.28321 | -1.11416 | 13676 ft | 368 kts | 282° |
| 2026-04-29 13:57 | 52.28871 | -1.15484 | 13352 ft | 365 kts | 282° |
| 2026-04-29 13:57 | 52.29420 | -1.19529 | 13021 ft | 364 kts | 282° |
| 2026-04-29 13:57 | 52.29780 | -1.22187 | 12818 ft | 363 kts | 282° |
| 2026-04-29 13:58 | 52.30499 | -1.27490 | 12386 ft | 357 kts | 282° |
| 2026-04-29 13:58 | 52.31034 | -1.31471 | 12066 ft | 351 kts | 282° |
| 2026-04-29 13:58 | 52.31545 | -1.35289 | 11759 ft | 346 kts | 282° |
| 2026-04-29 13:58 | 52.32055 | -1.39099 | 11454 ft | 340 kts | 282° |
| 2026-04-29 13:59 | 52.32553 | -1.42849 | 11155 ft | 335 kts | 282° |
| 2026-04-29 13:59 | 52.33050 | -1.46589 | 10862 ft | 330 kts | 282° |
| 2026-04-29 13:59 | 52.33529 | -1.50188 | 10574 ft | 326 kts | 282° |
| 2026-04-29 13:59 | 52.34007 | -1.53796 | 10284 ft | 322 kts | 282° |
| 2026-04-29 14:00 | 52.34479 | -1.57357 | 10012 ft | 320 kts | 282° |
| 2026-04-29 14:00 | 52.34945 | -1.60901 | 9727 ft | 317 kts | 282° |
| 2026-04-29 14:00 | 52.35406 | -1.64413 | 9453 ft | 315 kts | 282° |
| 2026-04-29 14:00 | 52.35869 | -1.67896 | 9178 ft | 313 kts | 283° |
| 2026-04-29 14:01 | 52.36192 | -1.70198 | 9003 ft | 312 kts | 283° |
| 2026-04-29 14:01 | 52.36680 | -1.73645 | 8723 ft | 311 kts | 283° |
| 2026-04-29 14:01 | 52.37174 | -1.77115 | 8446 ft | 308 kts | 283° |
| 2026-04-29 14:01 | 52.37652 | -1.80512 | 8179 ft | 304 kts | 283° |
| 2026-04-29 14:02 | 52.38118 | -1.83844 | 7924 ft | 302 kts | 283° |
| 2026-04-29 14:02 | 52.38611 | -1.87159 | 7645 ft | 300 kts | 291° |
| 2026-04-29 14:02 | 52.39701 | -1.90023 | 7192 ft | 298 kts | 320° |
| 2026-04-29 14:02 | 52.41339 | -1.92174 | 6633 ft | 299 kts | 329° |
| 2026-04-29 14:03 | 52.43004 | -1.94112 | 6145 ft | 297 kts | 330° |
| 2026-04-29 14:03 | 52.44703 | -1.96064 | 5768 ft | 298 kts | 330° |
| 2026-04-29 14:03 | 52.46396 | -1.98008 | 5442 ft | 296 kts | 330° |
| 2026-04-29 14:03 | 52.48073 | -1.99935 | 5180 ft | 292 kts | 330° |
| 2026-04-29 14:04 | 52.49716 | -2.01831 | 4928 ft | 286 kts | 330° |
| 2026-04-29 14:04 | 52.51328 | -2.03703 | 4683 ft | 282 kts | 330° |
| 2026-04-29 14:04 | 52.52924 | -2.05561 | 4427 ft | 279 kts | 331° |
| 2026-04-29 14:04 | 52.54629 | -2.06852 | 4194 ft | 262 kts | 356° |
| 2026-04-29 14:05 | 52.56350 | -2.06674 | 4068 ft | 239 kts | 26° |
| 2026-04-29 14:05 | 52.57640 | -2.05201 | 3930 ft | 219 kts | 56° |
| 2026-04-29 14:05 | 52.58324 | -2.03037 | 3710 ft | 212 kts | 75° |
| 2026-04-29 14:05 | 52.58529 | -2.00666 | 3476 ft | 209 kts | 86° |
| 2026-04-29 14:06 | 52.58582 | -1.98290 | 3244 ft | 205 kts | 87° |
| 2026-04-29 14:06 | 52.58621 | -1.95994 | 3060 ft | 194 kts | 86° |
| 2026-04-29 14:06 | 52.58659 | -1.93885 | 3006 ft | 176 kts | 85° |
| 2026-04-29 14:06 | 52.58697 | -1.91980 | 2998 ft | 157 kts | 87° |
| 2026-04-29 14:07 | 52.58470 | -1.90314 | 2980 ft | 155 kts | 123° |
| 2026-04-29 14:07 | 52.57665 | -1.89065 | 2951 ft | 162 kts | 129° |
| 2026-04-29 14:07 | 52.56836 | -1.87869 | 2803 ft | 156 kts | 130° |
| 2026-04-29 14:07 | 52.56014 | -1.86738 | 2589 ft | 151 kts | 134° |
| 2026-04-29 14:08 | 52.55193 | -1.85750 | 2407 ft | 145 kts | 136° |
| 2026-04-29 14:08 | 52.54361 | -1.84802 | 2213 ft | 146 kts | 138° |
| 2026-04-29 14:08 | 52.53524 | -1.83866 | 2030 ft | 147 kts | 138° |
| 2026-04-29 14:08 | 52.52695 | -1.82943 | 1848 ft | 146 kts | 139° |
| 2026-04-29 14:09 | 52.51853 | -1.82006 | 1649 ft | 146 kts | 139° |
| 2026-04-29 14:09 | 52.51004 | -1.81060 | 1448 ft | 148 kts | 139° |
| 2026-04-29 14:09 | 52.50157 | -1.80112 | 1273 ft | 145 kts | 139° |
| 2026-04-29 14:09 | 52.49331 | -1.79193 | 1059 ft | 144 kts | 140° |
| 2026-04-29 14:10 | 52.48501 | -1.78254 | 838 ft | 146 kts | 140° |
| 2026-04-29 14:10 | 52.47661 | -1.77332 | 653 ft | 144 kts | 141° |
| 2026-04-29 14:10 | 52.46840 | -1.76417 | 462 ft | 142 kts | 141° |
| 2026-04-29 14:10 | 52.46029 | -1.75517 | 316 ft | 133 kts | 142° |
| 2026-04-29 14:11 | 52.45356 | -1.74769 | 323 ft | 96 kts | 146° |
| 2026-04-29 14:11 | 52.45007 | -1.74379 | 325 ft | 26 kts | 146° |
| 2026-04-29 14:11 | 52.44952 | -1.74211 | 324 ft | 14 kts | 76° |
| 2026-04-29 14:11 | 52.44973 | -1.74074 | 323 ft | 10 kts | 75° |
| 2026-04-29 14:12 | 52.44987 | -1.73985 | 321 ft | 7 kts | 76° |
| 2026-04-29 14:12 | 52.45003 | -1.73913 | 321 ft | 7 kts | 57° |
| 2026-04-29 14:12 | 52.45033 | -1.73839 | 321 ft | 9 kts | 57° |
| 2026-04-29 14:12 | 52.45094 | -1.73776 | 322 ft | 13 kts | 346° |
| 2026-04-29 14:13 | 52.45176 | -1.73864 | 321 ft | 15 kts | 322° |
| 2026-04-29 14:13 | 52.45256 | -1.73953 | 320 ft | 11 kts | 327° |
| 2026-04-29 14:13 | 52.45319 | -1.73951 | 321 ft | 10 kts | 39° |
| 2026-04-29 14:13 | 52.45348 | -1.73866 | 322 ft | 8 kts | 108° |
| 2026-04-29 14:14 | 52.45306 | -1.73812 | 322 ft | 4 kts | 146° |
| 2026-04-29 14:14 | 52.45297 | -1.73803 | 322 ft | 0 kts | 146° |
| 2026-04-29 14:14 | 52.45294 | -1.73800 | 321 ft | 0 kts | 146° |